createdAt,value
2022-08-23T03:38:31.547Z,13.90
2022-08-23T03:41:00.676Z,13.70
2022-08-23T03:43:29.165Z,13.60
2022-08-23T03:45:57.213Z,13.60
2022-08-23T03:48:25.371Z,13.60
2022-08-23T03:50:54.702Z,13.50
2022-08-23T03:53:24.337Z,13.50
2022-08-23T03:55:55.557Z,13.50
2022-08-23T03:58:23.853Z,13.40
2022-08-23T04:00:51.757Z,13.40
2022-08-23T04:03:19.371Z,13.30
2022-08-23T04:06:04.806Z,13.30
2022-08-23T04:08:34.572Z,13.20
2022-08-23T04:11:05.018Z,13.20
2022-08-23T04:13:33.554Z,13.20
2022-08-23T04:16:05.188Z,13.20
2022-08-23T04:18:34.224Z,13.20
2022-08-23T04:21:10.738Z,13.10
2022-08-23T04:23:39.948Z,13.10
2022-08-23T04:26:09.956Z,13.10
2022-08-23T04:28:39.173Z,13.10
2022-08-23T04:31:07.213Z,13.10
2022-08-23T04:33:35.948Z,13.10
2022-08-23T04:36:09.751Z,13.10
2022-08-23T04:38:37.859Z,13.10
2022-08-23T04:41:25.927Z,13.10
2022-08-23T04:43:57.114Z,13.20
2022-08-23T04:46:29.781Z,13.30
2022-08-23T04:49:00.881Z,13.30
2022-08-23T04:51:29.528Z,13.40
2022-08-23T04:53:57.359Z,13.50
2022-08-23T04:56:50.885Z,13.50
2022-08-23T04:59:21.037Z,13.60
2022-08-23T05:04:18.181Z,13.70
2022-08-23T05:06:46.752Z,13.80
2022-08-23T05:09:19.832Z,14.00
2022-08-23T05:11:49.642Z,14.20
2022-08-23T05:14:18.416Z,14.30
2022-08-23T05:16:46.747Z,14.40
2022-08-23T05:19:15.000Z,14.50
2022-08-23T05:21:45.568Z,14.60
2022-08-23T05:24:14.015Z,14.70
2022-08-23T05:26:43.740Z,14.80
2022-08-23T05:29:11.549Z,14.90
2022-08-23T05:31:46.347Z,15.00
2022-08-23T05:34:22.515Z,15.10
2022-08-23T05:36:56.623Z,15.20
2022-08-23T05:39:36.988Z,15.40
2022-08-23T05:42:13.371Z,15.50
2022-08-23T05:44:41.481Z,15.60
2022-08-23T05:47:13.491Z,15.70
2022-08-23T05:50:02.051Z,15.80
2022-08-23T05:52:33.314Z,15.90
2022-08-23T05:55:01.090Z,16.00
2022-08-23T05:57:41.030Z,16.10
2022-08-23T06:00:14.506Z,16.30
2022-08-23T06:02:50.661Z,16.40
2022-08-23T06:05:20.689Z,16.60
2022-08-23T06:07:52.015Z,16.70
2022-08-23T06:10:22.361Z,16.80
2022-08-23T06:12:59.157Z,17.00
2022-08-23T06:15:26.616Z,17.10
2022-08-23T06:17:54.154Z,17.20
2022-08-23T06:20:21.795Z,17.30
2022-08-23T06:22:58.377Z,17.50
2022-08-23T06:25:25.899Z,17.70
2022-08-23T06:28:00.077Z,17.90
2022-08-23T06:30:30.417Z,18.10
2022-08-23T06:33:05.038Z,18.30
2022-08-23T06:35:39.943Z,18.50
2022-08-23T06:38:15.899Z,18.80
2022-08-23T06:41:08.311Z,19.00
2022-08-23T06:44:01.751Z,19.30
2022-08-23T06:46:34.335Z,19.60
2022-08-23T06:49:05.530Z,19.80
2022-08-23T06:51:43.598Z,20.10
2022-08-23T06:54:26.474Z,20.30
2022-08-23T06:57:09.426Z,20.60
2022-08-23T06:59:56.912Z,20.90
2022-08-23T07:02:45.869Z,21.10
2022-08-23T07:05:36.164Z,21.40
2022-08-23T07:08:17.899Z,21.60
2022-08-23T07:10:45.521Z,21.80
2022-08-23T07:13:16.924Z,22.00
2022-08-23T07:15:50.242Z,22.20
2022-08-23T07:18:20.296Z,22.30
2022-08-23T07:20:47.744Z,22.60
2022-08-23T07:23:15.996Z,22.80
2022-08-23T07:25:44.121Z,22.90
2022-08-23T07:28:16.590Z,23.00
2022-08-23T07:30:45.474Z,23.20
2022-08-23T07:33:14.923Z,23.40
2022-08-23T07:36:09.910Z,23.50
2022-08-23T07:38:39.640Z,23.70
2022-08-23T07:41:07.725Z,23.70
2022-08-23T07:43:36.177Z,23.80
2022-08-23T07:46:04.406Z,23.90
2022-08-23T07:48:52.948Z,24.20
2022-08-23T08:41:44.236Z,27.30
2022-08-23T08:44:31.153Z,27.30
2022-08-23T08:46:59.564Z,27.30
2022-08-23T08:49:44.884Z,27.60
2022-08-23T08:52:20.697Z,27.80
2022-08-23T08:54:53.257Z,28.00
2022-08-23T08:57:27.706Z,28.30
2022-08-23T09:00:15.032Z,28.50
2022-08-23T09:02:45.602Z,28.80
2022-08-23T09:05:39.939Z,29.10
2022-08-23T09:08:37.480Z,29.20
2022-08-23T09:11:23.783Z,29.40
2022-08-23T09:14:30.350Z,29.50
2022-08-23T09:17:14.651Z,29.70
2022-08-23T09:19:42.880Z,29.90
2022-08-23T09:22:19.571Z,30.00
2022-08-23T09:24:46.871Z,30.20
2022-08-23T09:27:21.905Z,30.30
2022-08-23T09:30:01.370Z,30.50
2022-08-23T09:32:42.285Z,30.50
2022-08-23T09:35:21.862Z,30.70
2022-08-23T09:38:03.865Z,30.70
2022-08-23T09:43:19.484Z,31.30
2022-08-23T09:45:50.024Z,31.50
2022-08-23T09:48:41.354Z,31.80
2022-08-23T09:51:26.304Z,32.00
2022-08-23T09:54:34.163Z,31.50
2022-08-23T09:57:09.849Z,30.90
2022-08-23T09:59:51.975Z,31.00
2022-08-23T10:02:35.436Z,31.20
2022-08-23T10:05:39.291Z,31.00
2022-08-23T10:08:23.527Z,31.00
2022-08-23T10:11:03.294Z,31.60
2022-08-23T10:13:33.706Z,32.10
2022-08-23T10:16:10.439Z,32.10
2022-08-23T10:19:18.332Z,32.30
2022-08-23T10:22:14.824Z,33.00
2022-08-23T10:25:00.709Z,33.40
2022-08-23T10:28:11.377Z,33.60
2022-08-23T10:31:11.435Z,34.10
2022-08-23T10:34:21.245Z,34.50
2022-08-23T10:37:17.381Z,34.60
2022-08-23T10:40:16.233Z,34.70
2022-08-23T10:43:09.675Z,34.80
2022-08-23T10:45:41.885Z,35.20
2022-08-23T10:48:29.925Z,35.00
2022-08-23T10:51:22.634Z,34.50
2022-08-23T10:54:10.363Z,34.30
2022-08-23T10:56:44.456Z,34.30
2022-08-23T10:59:24.491Z,34.90
2022-08-23T11:02:12.663Z,35.20
2022-08-23T11:04:49.473Z,35.10
2022-08-23T11:07:38.093Z,35.10
2022-08-23T11:10:26.830Z,35.80
2022-08-23T11:13:15.934Z,36.30
2022-08-23T11:16:13.665Z,36.70
2022-08-23T11:18:50.825Z,36.90
2022-08-23T11:21:31.220Z,37.00
2022-08-23T11:24:03.183Z,37.30
2022-08-23T11:26:36.353Z,37.50
2022-08-23T11:29:07.029Z,37.50
2022-08-23T11:32:00.888Z,37.50
2022-08-23T11:34:33.947Z,37.60
2022-08-23T11:37:30.954Z,37.40
2022-08-23T11:40:08.984Z,37.20
2022-08-23T11:42:37.859Z,36.80
2022-08-23T11:45:24.028Z,36.40
2022-08-23T11:48:14.257Z,36.00
2022-08-23T11:51:22.174Z,36.10
2022-08-23T11:53:58.167Z,36.20
2022-08-23T11:57:15.525Z,36.10
2022-08-23T12:00:06.065Z,36.20
2022-08-23T12:02:39.104Z,36.40
2022-08-23T12:05:32.535Z,37.10
2022-08-23T12:08:03.415Z,37.90
2022-08-23T12:10:43.177Z,38.60
2022-08-23T12:13:22.604Z,39.20
2022-08-23T12:16:24.285Z,39.30
2022-08-23T12:18:53.576Z,39.30
2022-08-23T12:21:51.555Z,38.80
2022-08-23T12:24:47.383Z,38.30
2022-08-23T12:27:59.284Z,37.50
2022-08-23T12:30:42.893Z,37.50
2022-08-23T12:33:36.905Z,38.10
2022-08-23T12:36:33.864Z,39.10
2022-08-23T12:39:09.169Z,39.60
2022-08-23T12:42:14.032Z,39.70
2022-08-23T12:44:46.873Z,39.20
2022-08-23T12:47:21.263Z,38.70
2022-08-23T12:50:02.001Z,38.30
2022-08-23T12:52:35.134Z,38.20
2022-08-23T12:55:03.336Z,38.50
2022-08-23T12:57:42.479Z,38.40
2022-08-23T13:00:33.840Z,38.60
2022-08-23T13:03:06.429Z,38.90
2022-08-23T13:05:49.397Z,39.10
2022-08-23T13:08:35.244Z,39.60
2022-08-23T13:11:08.689Z,39.80
2022-08-23T13:13:42.959Z,40.10
2022-08-23T13:16:42.414Z,40.30
2022-08-23T13:19:33.970Z,40.10
2022-08-23T13:22:29.824Z,39.80
2022-08-23T13:25:39.565Z,39.90
2022-08-23T13:28:23.847Z,40.20
2022-08-23T13:31:11.265Z,40.30
2022-08-23T13:33:40.933Z,40.40
2022-08-23T13:36:13.363Z,40.40
2022-08-23T13:38:43.579Z,40.70
2022-08-23T13:41:38.988Z,40.80
2022-08-23T13:44:12.744Z,40.70
2022-08-23T13:46:48.178Z,40.70
2022-08-23T13:49:28.714Z,40.70
2022-08-23T13:54:52.939Z,40.50
2022-08-23T13:57:22.308Z,40.70
2022-08-23T13:59:54.896Z,40.70
2022-08-23T14:02:24.345Z,40.80
2022-08-23T14:04:52.516Z,40.70
2022-08-23T14:07:20.424Z,40.70
2022-08-23T14:09:50.994Z,40.50
2022-08-23T14:12:27.740Z,40.00
2022-08-23T14:14:57.390Z,39.40
2022-08-23T14:17:25.342Z,38.90
2022-08-23T14:22:41.261Z,38.30
2022-08-23T14:25:10.734Z,38.00
2022-08-23T14:27:41.548Z,37.90
2022-08-23T14:30:16.812Z,37.70
2022-08-23T14:32:44.445Z,37.40
2022-08-23T14:35:11.897Z,37.40
2022-08-23T14:40:27.250Z,38.10
2022-08-23T14:42:55.258Z,38.40
2022-08-23T14:45:22.984Z,38.60
2022-08-23T14:47:50.756Z,38.80
2022-08-23T14:50:18.304Z,38.90
2022-08-23T14:52:47.687Z,38.90
2022-08-23T14:55:15.863Z,38.90
2022-08-23T14:57:44.140Z,38.50
2022-08-23T15:00:14.986Z,38.20
2022-08-23T15:02:47.217Z,38.10
2022-08-23T15:05:15.940Z,37.80
2022-08-23T15:07:43.932Z,37.80
2022-08-23T15:10:49.719Z,37.90
2022-08-23T15:13:19.160Z,38.10
2022-08-23T15:15:49.282Z,38.10
2022-08-23T15:18:18.273Z,37.90
2022-08-23T15:20:46.235Z,37.70
2022-08-23T15:23:14.484Z,37.60
2022-08-23T15:25:44.066Z,37.50
2022-08-23T15:28:16.531Z,37.30
2022-08-23T15:30:45.819Z,37.00
2022-08-23T15:33:13.798Z,36.80
2022-08-23T15:35:49.926Z,36.60
2022-08-23T15:38:20.538Z,36.20
2022-08-23T15:40:51.607Z,35.80
2022-08-23T15:43:20.729Z,35.10
2022-08-23T16:15:24.146Z,31.20
2022-08-23T16:17:51.527Z,31.20
2022-08-23T16:20:18.926Z,31.10
2022-08-23T16:22:46.352Z,30.90
2022-08-23T16:25:13.958Z,30.80
2022-08-23T16:27:41.734Z,30.80
2022-08-23T16:30:12.574Z,30.70
2022-08-23T16:32:41.218Z,30.50
2022-08-23T16:35:09.818Z,30.30
2022-08-23T16:37:37.149Z,30.00
2022-08-23T16:40:09.882Z,29.80
2022-08-23T16:42:37.414Z,29.80
2022-08-23T16:45:05.664Z,29.70
2022-08-23T16:47:40.335Z,29.60
2022-08-23T16:52:37.919Z,29.40
2022-08-23T16:55:09.941Z,29.30
2022-08-23T16:57:37.662Z,29.10
2022-08-23T17:00:08.214Z,29.00
2022-08-23T17:02:37.012Z,29.00
2022-08-23T17:05:13.501Z,28.80
2022-08-23T17:07:41.216Z,28.80
2022-08-23T17:10:11.107Z,28.70
2022-08-23T17:12:46.912Z,28.70
2022-08-23T17:15:20.397Z,28.60
2022-08-23T17:17:49.171Z,28.60
2022-08-23T17:20:19.423Z,28.50
2022-08-23T17:22:47.854Z,28.40
2022-08-23T17:25:17.209Z,28.30
2022-08-23T17:27:46.515Z,28.20
2022-08-23T17:30:18.254Z,28.10
2022-08-23T17:32:49.653Z,28.00
2022-08-23T17:35:22.184Z,27.80
2022-08-23T17:37:49.802Z,27.70
2022-08-23T17:40:35.240Z,27.60
2022-08-23T17:43:03.720Z,27.40
2022-08-23T17:45:46.563Z,27.30
2022-08-23T17:48:16.856Z,27.10
2022-08-23T17:50:46.421Z,26.90
2022-08-23T17:53:15.752Z,26.80
2022-08-23T17:55:44.248Z,26.60
2022-08-23T17:58:13.668Z,26.50
2022-08-23T18:00:41.279Z,26.30
2022-08-23T18:03:08.884Z,26.20
2022-08-23T18:05:40.184Z,25.90
2022-08-23T18:08:08.646Z,25.70
2022-08-23T18:10:37.143Z,25.60
2022-08-23T18:13:05.450Z,25.40
2022-08-23T18:15:33.147Z,25.30
2022-08-23T18:18:02.621Z,25.10
2022-08-23T18:20:30.970Z,25.00
2022-08-23T18:22:59.548Z,24.80
2022-08-23T18:25:28.064Z,24.60
2022-08-23T18:28:07.086Z,24.40
2022-08-23T18:30:47.078Z,24.30
2022-08-23T18:55:59.481Z,21.90
2022-08-23T18:58:27.831Z,21.70
2022-08-23T19:00:56.846Z,21.60
2022-08-23T19:03:24.478Z,21.50
2022-08-23T19:05:52.492Z,21.30
2022-08-23T19:08:20.308Z,21.20
2022-08-23T19:10:48.055Z,21.10
2022-08-23T19:13:16.021Z,21.00
2022-08-23T19:15:43.749Z,21.00
2022-08-23T19:18:11.362Z,20.90
2022-08-23T19:20:39.103Z,20.90
2022-08-23T19:23:06.720Z,20.90
2022-08-23T19:25:37.298Z,20.80
2022-08-23T19:28:06.364Z,20.80
2022-08-23T19:30:33.990Z,20.70
2022-08-23T19:33:01.693Z,20.60
2022-08-23T19:40:05.598Z,20.50
2022-08-23T19:42:37.146Z,20.50
2022-08-23T19:45:06.487Z,20.40
2022-08-23T19:47:35.167Z,20.30
2022-08-23T19:50:05.247Z,20.30
2022-08-23T19:52:33.642Z,20.20
2022-08-23T19:55:05.352Z,20.10
2022-08-23T19:57:35.393Z,20.00
2022-08-23T20:00:10.531Z,19.90
2022-08-23T20:02:38.136Z,19.90
2022-08-23T20:05:07.083Z,19.90
2022-08-23T20:07:36.362Z,19.90
2022-08-23T20:10:06.077Z,19.80
2022-08-23T20:12:34.084Z,19.80
2022-08-23T20:15:02.602Z,19.70
2022-08-23T20:17:30.262Z,19.70
2022-08-23T20:19:58.268Z,19.70
2022-08-23T20:22:44.538Z,19.60
2022-08-23T20:25:12.120Z,19.50
2022-08-23T20:27:39.651Z,19.50
2022-08-23T20:30:08.938Z,19.50
2022-08-23T20:32:37.620Z,19.50
2022-08-23T20:35:08.387Z,19.50
2022-08-23T20:37:36.203Z,19.40
2022-08-23T20:40:06.203Z,19.40
2022-08-23T20:42:33.698Z,19.30
2022-08-23T20:45:05.933Z,19.20
2022-08-23T20:47:33.808Z,19.20
2022-08-23T20:50:01.530Z,19.20
2022-08-23T20:52:34.024Z,19.00
2022-08-23T20:55:02.873Z,19.00
2022-08-23T20:57:31.975Z,18.90
2022-08-23T21:00:08.357Z,18.90
2022-08-23T21:02:35.916Z,18.80
2022-08-23T21:05:04.704Z,18.80
2022-08-23T21:07:34.490Z,18.70
2022-08-23T21:10:05.144Z,18.70
2022-08-23T21:12:32.702Z,18.70
2022-08-23T21:15:00.319Z,18.60
2022-08-23T21:17:27.945Z,18.50
2022-08-23T21:19:55.479Z,18.40
2022-08-23T21:22:23.158Z,18.40
2022-08-23T21:24:59.575Z,18.40
2022-08-23T21:27:27.816Z,18.30
2022-08-23T21:29:55.379Z,18.20
2022-08-23T21:32:23.688Z,18.00
2022-08-23T21:34:51.238Z,17.70
2022-08-23T21:37:18.932Z,17.60
2022-08-23T21:39:46.586Z,17.50
2022-08-23T21:42:15.444Z,17.40
2022-08-23T21:44:43.582Z,17.40
2022-08-23T21:47:11.335Z,17.40
2022-08-23T21:49:39.274Z,17.50
2022-08-23T21:52:07.814Z,17.50
2022-08-23T21:54:36.199Z,17.50
2022-08-23T21:57:05.461Z,17.60
2022-08-23T21:59:33.243Z,17.70
2022-08-23T22:02:00.823Z,17.70
2022-08-23T22:04:28.454Z,17.80
2022-08-23T22:06:59.939Z,17.70
2022-08-23T22:09:31.550Z,17.60
2022-08-23T22:12:34.319Z,17.60
2022-08-23T22:15:02.121Z,17.50
2022-08-23T22:17:29.958Z,17.40
2022-08-23T22:19:57.759Z,17.40
2022-08-23T22:22:25.346Z,17.40
2022-08-23T22:24:54.203Z,17.40
2022-08-23T22:27:21.792Z,17.40
2022-08-23T22:29:49.309Z,17.40
2022-08-23T22:32:16.979Z,17.50
2022-08-23T22:34:44.651Z,17.50
2022-08-23T22:37:12.525Z,17.50
2022-08-23T22:39:40.079Z,17.50
2022-08-23T22:42:09.393Z,17.40
2022-08-23T22:44:37.770Z,17.40
2022-08-23T22:47:05.662Z,17.30
2022-08-23T22:49:33.307Z,17.30
2022-08-23T22:52:01.125Z,17.30
2022-08-23T22:54:29.031Z,17.20
2022-08-23T22:56:56.632Z,17.20
2022-08-23T22:59:32.768Z,17.20
2022-08-23T23:02:03.243Z,17.10
2022-08-23T23:04:32.629Z,17.10
2022-08-23T23:07:00.545Z,17.00
2022-08-23T23:09:28.551Z,17.00
2022-08-23T23:11:56.651Z,17.00
2022-08-23T23:14:24.446Z,17.00
2022-08-23T23:16:53.533Z,17.00
2022-08-23T23:19:39.680Z,16.90
2022-08-23T23:22:09.361Z,16.80
2022-08-23T23:24:40.246Z,16.70
2022-08-23T23:27:08.494Z,16.70
2022-08-23T23:29:36.772Z,16.60
2022-08-23T23:32:05.264Z,16.60
2022-08-23T23:34:32.860Z,16.60
2022-08-23T23:37:00.638Z,16.50
2022-08-23T23:39:29.182Z,16.50
2022-08-23T23:41:57.567Z,16.50
2022-08-23T23:44:29.928Z,16.50
2022-08-23T23:47:01.560Z,16.50
2022-08-23T23:49:32.636Z,16.40
2022-08-23T23:52:06.036Z,16.40
2022-08-23T23:54:35.914Z,16.40
2022-08-23T23:57:44.577Z,16.30
